Time;durP1;ratioP1;P1;durP2;ratioP2;P2;SDS_P1;SDS_P2;PMS_P1;PMS_P2;Temp;Humidity;BMP_temperature;BMP_pressure;BME280_temperature;BME280_humidity;BME280_pressure;Samples;Min_cycle;Max_cycle;Signal;HPM_P1;HPM_P2
2023/04/05 00:00:31;;;;;;;5.10;3.60;;;8.60;30.00;;;;;;5015370;28;20178;-53
2023/04/05 00:02:58;;;;;;;5.47;4.03;;;8.60;29.80;;;;;;5015130;28;20167;-52
2023/04/05 00:05:29;;;;;;;4.60;3.50;;;8.60;30.10;;;;;;5015145;28;20206;-51
2023/04/05 00:08:01;;;;;;;5.15;4.07;;;8.60;29.60;;;;;;5015184;28;20256;-52
2023/04/05 00:10:28;;;;;;;6.40;4.50;;;8.60;29.80;;;;;;5015105;28;20181;-52
2023/04/05 00:12:54;;;;;;;5.15;4.47;;;8.50;30.70;;;;;;5014909;28;20181;-53
2023/04/05 00:15:21;;;;;;;7.43;4.15;;;8.60;31.00;;;;;;5015263;28;20198;-53
2023/04/05 00:17:47;;;;;;;5.53;4.13;;;8.60;31.10;;;;;;5014974;28;20740;-53
2023/04/05 00:20:13;;;;;;;6.03;4.60;;;8.60;30.40;;;;;;5014913;28;20264;-51
2023/04/05 00:22:43;;;;;;;7.90;4.70;;;8.50;30.50;;;;;;5015021;28;20499;-51
2023/04/05 00:25:09;;;;;;;8.88;4.43;;;8.50;30.80;;;;;;5014766;28;20201;-52
2023/04/05 00:27:35;;;;;;;4.72;4.28;;;8.50;31.30;;;;;;5014860;28;20645;-52
2023/04/05 00:30:01;;;;;;;6.45;4.43;;;8.40;31.10;;;;;;5015036;28;20181;-53
2023/04/05 00:32:27;;;;;;;8.60;5.47;;;8.40;30.20;;;;;;5014772;28;20181;-52
2023/04/05 00:34:52;;;;;;;4.67;4.03;;;8.40;30.10;;;;;;5014873;28;20436;-52
2023/04/05 00:37:18;;;;;;;8.27;4.00;;;8.30;30.30;;;;;;5014609;28;20208;-53
2023/04/05 00:39:44;;;;;;;12.70;4.40;;;8.30;30.50;;;;;;5014726;28;20183;-52
2023/04/05 00:42:10;;;;;;;7.50;4.77;;;8.30;30.20;;;;;;5014684;28;20180;-53
2023/04/05 00:44:36;;;;;;;9.07;4.45;;;8.20;29.90;;;;;;5013657;28;20195;-52
2023/04/05 00:47:06;;;;;;;8.27;4.57;;;8.20;30.00;;;;;;5014509;28;20659;-53
2023/04/05 00:49:33;;;;;;;6.55;4.57;;;8.20;29.90;;;;;;5014529;28;20433;-52
2023/04/05 00:52:00;;;;;;;8.35;4.25;;;8.10;30.00;;;;;;5014204;28;20245;-51
2023/04/05 00:54:29;;;;;;;6.72;4.07;;;8.10;29.90;;;;;;5014355;28;20170;-51
2023/04/05 00:56:59;;;;;;;8.02;4.28;;;8.10;29.80;;;;;;5014169;28;20201;-51
2023/04/05 00:59:25;;;;;;;7.45;4.15;;;8.10;30.60;;;;;;5014282;28;20550;-51
2023/04/05 01:02:24;;;;;;;6.00;4.15;;;8.00;30.20;;;;;;5013875;28;20828;-51
2023/04/05 01:05:00;;;;;;;5.85;3.90;;;8.10;30.40;;;;;;5014322;28;20197;-51
2023/04/05 01:07:58;;;;;;;5.65;4.97;;;8.10;29.70;;;;;;5014332;28;20602;-51
2023/04/05 01:10:29;;;;;;;6.80;4.20;;;8.10;29.70;;;;;;4986582;28;20250;-51
2023/04/05 01:12:55;;;;;;;7.85;3.90;;;8.00;29.90;;;;;;5013756;28;20171;-51
2023/04/05 01:15:20;;;;;;;5.30;4.10;;;8.00;30.00;;;;;;5013943;28;20195;-51
2023/04/05 01:17:47;;;;;;;6.47;4.97;;;8.00;30.00;;;;;;5014188;28;20447;-53
2023/04/05 01:20:14;;;;;;;7.95;4.57;;;8.00;30.20;;;;;;5013845;28;20188;-51
2023/04/05 01:22:51;;;;;;;5.28;3.90;;;8.00;30.30;;;;;;5013808;28;20183;-51
2023/04/05 01:25:59;;;;;;;4.60;3.92;;;8.00;30.20;;;;;;5013722;28;20189;-51
2023/04/05 01:28:42;;;;;;;5.93;4.65;;;8.00;30.40;;;;;;4986830;28;20190;-53
2023/04/05 01:31:31;;;;;;;7.22;3.50;;;8.00;30.30;;;;;;5013536;28;20178;-51
2023/04/05 01:34:03;;;;;;;5.30;3.72;;;8.00;29.70;;;;;;5013468;28;20173;-51
2023/04/05 01:36:48;;;;;;;6.80;4.53;;;8.00;29.80;;;;;;5013530;28;20201;-51
2023/04/05 01:39:16;;;;;;;5.90;4.10;;;8.00;30.50;;;;;;5013426;28;20284;-51
2023/04/05 01:41:41;;;;;;;8.27;5.68;;;8.00;30.70;;;;;;5013423;28;20171;-51
2023/04/05 01:44:07;;;;;;;5.73;3.63;;;8.00;31.20;;;;;;5013515;28;20216;-51
2023/04/05 01:46:33;;;;;;;6.53;3.97;;;8.00;31.30;;;;;;5013372;28;20192;-51
2023/04/05 01:48:59;;;;;;;7.13;4.10;;;8.00;31.50;;;;;;5013213;28;20409;-51
2023/04/05 01:51:25;;;;;;;6.20;3.50;;;8.10;31.60;;;;;;5013529;28;20182;-51
2023/04/05 01:53:51;;;;;;;5.60;3.83;;;8.10;31.00;;;;;;5012976;28;20677;-51
2023/04/05 01:56:17;;;;;;;6.10;3.47;;;8.10;31.10;;;;;;5013033;28;20218;-50
2023/04/05 01:58:42;;;;;;;6.70;4.00;;;8.10;31.20;;;;;;5013244;28;20592;-51
2023/04/05 02:01:08;;;;;;;5.10;4.00;;;8.10;31.50;;;;;;5013366;28;20780;-51
2023/04/05 02:03:34;;;;;;;4.67;3.77;;;8.10;31.60;;;;;;5013149;28;20713;-51
2023/04/05 02:06:00;;;;;;;4.47;3.30;;;8.10;31.70;;;;;;5012995;28;20421;-51
2023/04/05 02:08:26;;;;;;;4.43;3.23;;;8.10;31.60;;;;;;5013204;28;20424;-50
2023/04/05 02:10:54;;;;;;;7.87;4.20;;;8.10;31.80;;;;;;5012987;28;20409;-51
2023/04/05 02:13:24;;;;;;;5.10;3.75;;;8.10;31.80;;;;;;5012679;28;20804;-51
2023/04/05 02:15:50;;;;;;;5.57;3.38;;;8.10;31.80;;;;;;5012850;28;20196;-51
2023/04/05 02:18:21;;;;;;;5.47;3.83;;;8.10;31.90;;;;;;5012861;28;20285;-51
2023/04/05 02:20:50;;;;;;;8.50;4.43;;;8.10;31.90;;;;;;5012753;28;20772;-51
2023/04/05 02:23:18;;;;;;;5.47;3.47;;;8.20;32.10;;;;;;5012558;28;20168;-51
2023/04/05 02:25:44;;;;;;;5.28;3.83;;;8.10;32.10;;;;;;5012705;28;20674;-51
2023/04/05 02:28:10;;;;;;;7.40;3.47;;;8.10;32.10;;;;;;5012621;28;20650;-51
2023/04/05 02:30:36;;;;;;;4.60;3.80;;;8.10;32.20;;;;;;5012675;28;20229;-51
2023/04/05 02:33:01;;;;;;;7.23;4.37;;;8.10;32.30;;;;;;5012372;28;20187;-51
2023/04/05 02:35:27;;;;;;;6.20;3.67;;;8.10;32.30;;;;;;5012406;28;20198;-51
2023/04/05 02:37:53;;;;;;;4.10;3.60;;;8.10;32.30;;;;;;5012680;28;20532;-51
2023/04/05 02:40:20;;;;;;;4.20;3.50;;;8.10;32.40;;;;;;5012533;28;20167;-51
2023/04/05 02:42:46;;;;;;;6.93;3.55;;;8.10;32.30;;;;;;5012293;28;20221;-51
2023/04/05 02:45:11;;;;;;;5.60;3.90;;;8.10;32.40;;;;;;5012365;28;20202;-50
2023/04/05 02:47:37;;;;;;;4.53;3.73;;;8.10;32.50;;;;;;5012702;28;20182;-51
2023/04/05 02:50:03;;;;;;;4.03;3.20;;;8.10;32.50;;;;;;5012344;28;20277;-51
2023/04/05 02:52:31;;;;;;;5.65;3.92;;;8.10;32.40;;;;;;5012179;28;20193;-50
2023/04/05 02:54:56;;;;;;;8.80;4.15;;;8.10;32.50;;;;;;5012309;28;20217;-51
2023/04/05 02:57:22;;;;;;;4.57;3.83;;;8.10;32.50;;;;;;5012553;28;20190;-51
2023/04/05 02:59:48;;;;;;;5.60;4.73;;;8.10;32.60;;;;;;5012376;28;20217;-52
2023/04/05 03:02:14;;;;;;;5.33;3.50;;;8.10;32.70;;;;;;5012009;28;20175;-52
2023/04/05 03:04:43;;;;;;;5.53;3.83;;;8.10;32.70;;;;;;5012119;28;20201;-52
2023/04/05 03:07:09;;;;;;;5.72;4.55;;;8.10;31.90;;;;;;5012615;28;20182;-52
2023/04/05 03:09:37;;;;;;;4.50;3.60;;;8.00;31.70;;;;;;5016506;28;20665;-52
2023/04/05 03:12:03;;;;;;;5.00;3.53;;;8.00;31.90;;;;;;5016313;28;20178;-53
2023/04/05 03:14:30;;;;;;;4.95;3.50;;;8.00;32.20;;;;;;5016437;28;20193;-52
2023/04/05 03:16:56;;;;;;;4.80;3.75;;;8.00;32.20;;;;;;5016190;28;20647;-51
2023/04/05 03:19:23;;;;;;;6.43;4.03;;;8.00;32.40;;;;;;5015967;28;20206;-51
2023/04/05 03:21:49;;;;;;;6.55;3.40;;;8.00;32.60;;;;;;5016024;28;20254;-51
2023/04/05 03:24:15;;;;;;;5.68;4.30;;;8.00;32.80;;;;;;5016359;28;20281;-52
2023/04/05 03:26:48;;;;;;;4.47;4.03;;;8.00;32.70;;;;;;5016078;28;20194;-53
2023/04/05 03:29:14;;;;;;;5.13;3.88;;;8.00;32.80;;;;;;5016063;28;20267;-53
2023/04/05 03:31:40;;;;;;;8.75;4.10;;;8.00;32.90;;;;;;5015763;28;20174;-53
2023/04/05 03:34:06;;;;;;;6.87;3.53;;;8.00;32.80;;;;;;5015759;28;20250;-53
2023/04/05 03:36:40;;;;;;;7.63;4.20;;;8.00;32.80;;;;;;5015786;28;20195;-53
2023/04/05 03:39:09;;;;;;;6.10;4.45;;;8.00;33.00;;;;;;5015686;28;20518;-52
2023/04/05 03:41:35;;;;;;;6.40;3.97;;;7.90;32.80;;;;;;5015794;28;20178;-52
2023/04/05 03:44:00;;;;;;;7.60;3.90;;;7.90;32.90;;;;;;5015766;28;20175;-53
2023/04/05 03:46:26;;;;;;;9.20;4.70;;;7.90;33.20;;;;;;5015554;28;20219;-51
2023/04/05 03:48:52;;;;;;;8.23;4.13;;;7.90;32.70;;;;;;5015781;28;20278;-53
2023/04/05 03:51:18;;;;;;;7.10;4.50;;;7.90;33.00;;;;;;5015489;28;20200;-53
2023/04/05 03:53:46;;;;;;;5.80;4.60;;;7.90;33.20;;;;;;5015407;28;20659;-52
2023/04/05 03:56:12;;;;;;;4.82;3.28;;;8.00;34.00;;;;;;5015304;28;20949;-52
2023/04/05 03:58:38;;;;;;;4.47;3.53;;;8.00;33.30;;;;;;5015424;28;20215;-52
2023/04/05 04:01:03;;;;;;;5.77;3.90;;;7.90;33.40;;;;;;5015517;28;20174;-52
2023/04/05 04:03:29;;;;;;;4.30;3.50;;;8.00;33.10;;;;;;5015342;28;20666;-52
2023/04/05 04:05:58;;;;;;;6.57;4.47;;;7.90;33.10;;;;;;5015103;28;20205;-53
2023/04/05 04:08:25;;;;;;;5.82;4.10;;;8.00;33.10;;;;;;5015245;28;20533;-53
2023/04/05 04:10:51;;;;;;;5.57;4.68;;;8.00;33.30;;;;;;5015434;28;20251;-53
2023/04/05 04:13:18;;;;;;;5.37;4.03;;;8.00;33.50;;;;;;5014920;28;20179;-52
2023/04/05 04:15:44;;;;;;;6.63;5.03;;;7.90;33.50;;;;;;5014957;28;20447;-52
2023/04/05 04:18:10;;;;;;;5.75;4.72;;;7.90;33.50;;;;;;5014898;28;20705;-52
2023/04/05 04:20:37;;;;;;;7.28;5.28;;;7.90;33.50;;;;;;5013974;28;20545;-53
2023/04/05 04:23:05;;;;;;;6.93;4.72;;;7.90;33.30;;;;;;5014820;28;20262;-53
2023/04/05 04:25:31;;;;;;;6.07;5.00;;;7.90;33.30;;;;;;5014829;28;20186;-52
2023/04/05 04:27:57;;;;;;;9.20;4.63;;;7.90;33.50;;;;;;5014811;28;20261;-53
2023/04/05 04:30:23;;;;;;;11.23;5.63;;;7.90;33.10;;;;;;5014829;28;20219;-54
2023/04/05 04:35:19;;;;;;;5.85;4.18;;;7.90;33.10;;;;;;5014874;28;20190;-50
2023/04/05 04:37:54;;;;;;;7.80;5.30;;;7.90;33.40;;;;;;5014835;28;20238;-54
2023/04/05 04:40:45;;;;;;;7.70;4.82;;;7.80;33.10;;;;;;5014547;28;20500;-49
2023/04/05 04:43:16;;;;;;;11.05;5.10;;;7.80;33.50;;;;;;5014560;28;20179;-52
2023/04/05 04:45:48;;;;;;;9.93;5.05;;;7.80;33.40;;;;;;5014650;28;20634;-50
2023/04/05 04:48:15;;;;;;;8.27;5.47;;;7.80;33.60;;;;;;5014535;28;20185;-50
2023/04/05 04:50:45;;;;;;;8.38;5.18;;;7.80;33.60;;;;;;5014664;28;20201;-54
2023/04/05 04:53:21;;;;;;;7.03;4.60;;;7.80;33.80;;;;;;5014140;28;20213;-52
2023/04/05 04:55:49;;;;;;;10.20;5.65;;;7.70;33.50;;;;;;5014110;28;20759;-52
2023/04/05 04:58:16;;;;;;;7.80;5.05;;;7.70;33.50;;;;;;5014257;28;20195;-54
2023/04/05 05:00:44;;;;;;;8.63;5.47;;;7.70;33.60;;;;;;5014596;28;20202;-50
2023/04/05 05:03:10;;;;;;;9.00;4.97;;;7.70;33.50;;;;;;5013957;28;20882;-51
2023/04/05 05:05:45;;;;;;;5.25;4.43;;;7.70;33.50;;;;;;5013921;28;20278;-52
2023/04/05 05:08:12;;;;;;;9.95;6.32;;;7.70;33.50;;;;;;5014354;28;20166;-52
2023/04/05 05:10:38;;;;;;;6.47;5.35;;;7.60;33.40;;;;;;5014197;28;20183;-50
2023/04/05 05:13:03;;;;;;;6.90;4.63;;;7.60;33.30;;;;;;5013798;28;20179;-52
2023/04/05 05:15:29;;;;;;;7.73;5.57;;;7.60;33.40;;;;;;5013907;28;20434;-53
2023/04/05 05:17:55;;;;;;;9.03;6.10;;;7.60;33.60;;;;;;5013866;28;20220;-50
2023/04/05 05:20:21;;;;;;;9.50;5.67;;;7.60;33.50;;;;;;5014085;28;20413;-52
2023/04/05 05:22:47;;;;;;;6.70;5.23;;;7.60;33.50;;;;;;5013568;28;20175;-53
2023/04/05 05:25:13;;;;;;;7.90;6.07;;;7.60;33.30;;;;;;5013926;28;20422;-49
2023/04/05 05:27:40;;;;;;;11.10;5.85;;;7.60;33.30;;;;;;5013786;28;20647;-50
2023/04/05 05:30:06;;;;;;;8.98;5.07;;;7.60;33.40;;;;;;5013449;28;20190;-52
2023/04/05 05:32:31;;;;;;;7.90;6.30;;;7.60;33.30;;;;;;5013349;28;20236;-52
2023/04/05 05:34:57;;;;;;;11.83;5.97;;;7.70;33.40;;;;;;5013382;28;20198;-49
2023/04/05 05:37:32;;;;;;;8.50;5.27;;;7.70;33.30;;;;;;5013707;28;20175;-52
2023/04/05 05:39:58;;;;;;;7.28;5.70;;;7.80;33.10;;;;;;5013712;28;20167;-52
2023/04/05 05:42:25;;;;;;;8.80;6.63;;;7.80;33.10;;;;;;5013271;28;20183;-50
2023/04/05 05:44:51;;;;;;;15.23;6.60;;;7.90;33.10;;;;;;5013643;28;20461;-52
2023/04/05 05:47:17;;;;;;;9.57;7.20;;;8.00;33.10;;;;;;5013283;28;20175;-52
2023/04/05 05:49:43;;;;;;;12.87;7.97;;;8.00;33.10;;;;;;5013292;28;20398;-50
2023/04/05 05:52:09;;;;;;;12.13;7.70;;;8.10;33.00;;;;;;5013049;28;20656;-52
2023/04/05 05:54:34;;;;;;;14.17;7.33;;;8.10;32.80;;;;;;5013162;28;20183;-52
2023/04/05 05:57:01;;;;;;;14.70;9.20;;;8.20;32.80;;;;;;5013259;28;20179;-49
2023/04/05 05:59:27;;;;;;;10.27;6.85;;;8.30;32.70;;;;;;5013099;28;20541;-52
2023/04/05 06:01:53;;;;;;;11.00;6.93;;;8.40;32.60;;;;;;5012772;28;20206;-50
2023/04/05 06:04:19;;;;;;;11.68;7.03;;;8.40;32.30;;;;;;5012947;28;20909;-52
2023/04/05 06:06:46;;;;;;;10.90;7.70;;;8.60;32.20;;;;;;5012965;28;20193;-51
2023/04/05 06:09:13;;;;;;;10.63;7.15;;;8.60;32.10;;;;;;5012981;28;20909;-52
2023/04/05 06:11:39;;;;;;;9.07;6.20;;;8.70;32.10;;;;;;5013203;28;20466;-52
2023/04/05 06:14:05;;;;;;;11.07;6.47;;;8.80;32.00;;;;;;5012660;28;20666;-49
2023/04/05 06:16:30;;;;;;;8.53;7.53;;;8.90;32.10;;;;;;5013004;28;20229;-52
2023/04/05 06:18:57;;;;;;;12.43;7.80;;;8.90;32.00;;;;;;5012999;28;20201;-53
2023/04/05 06:21:23;;;;;;;12.95;7.93;;;9.00;31.70;;;;;;5012770;28;20164;-50
2023/04/05 06:23:48;;;;;;;8.45;6.45;;;9.00;31.40;;;;;;5012862;28;20191;-52
2023/04/05 06:26:19;;;;;;;9.77;6.70;;;9.10;31.30;;;;;;5012949;28;20270;-53
2023/04/05 06:28:48;;;;;;;10.80;6.65;;;9.10;31.40;;;;;;5012665;28;20182;-51
2023/04/05 06:31:19;;;;;;;7.60;5.75;;;9.20;31.40;;;;;;5012624;28;20178;-52
2023/04/05 06:33:45;;;;;;;9.88;5.80;;;9.30;30.90;;;;;;5012745;28;20172;-53
2023/04/05 06:36:11;;;;;;;8.07;6.18;;;9.50;30.50;;;;;;5012775;28;20198;-50
2023/04/05 06:38:37;;;;;;;6.90;5.47;;;9.50;30.50;;;;;;5012777;28;20203;-52
2023/04/05 06:41:03;;;;;;;7.10;5.90;;;9.60;30.50;;;;;;5012783;28;20496;-52
2023/04/05 06:43:30;;;;;;;7.38;5.40;;;9.70;30.50;;;;;;5011458;28;20655;-50
2023/04/05 06:45:56;;;;;;;7.18;5.13;;;9.80;29.80;;;;;;5012309;28;20215;-50
2023/04/05 06:48:22;;;;;;;6.07;4.87;;;9.80;29.20;;;;;;5012641;28;20181;-52
2023/04/05 06:50:59;;;;;;;8.53;4.77;;;9.90;29.50;;;;;;5012361;28;20417;-52
2023/04/05 06:53:26;;;;;;;9.63;5.03;;;10.00;29.60;;;;;;5012109;28;20742;-50
2023/04/05 06:55:53;;;;;;;5.30;4.65;;;10.10;29.20;;;;;;5012053;28;20219;-52
2023/04/05 06:58:19;;;;;;;5.78;4.90;;;10.10;29.20;;;;;;5012386;28;20281;-52
2023/04/05 07:00:46;;;;;;;6.13;4.47;;;10.20;28.20;;;;;;5012390;28;20789;-53
2023/04/05 07:03:11;;;;;;;9.63;5.13;;;10.20;28.50;;;;;;5012095;28;20418;-52
2023/04/05 07:05:37;;;;;;;7.93;5.23;;;10.30;29.00;;;;;;5012124;28;20555;-52
2023/04/05 07:08:03;;;;;;;10.67;5.80;;;10.40;28.50;;;;;;5012405;28;20424;-51
2023/04/05 07:10:29;;;;;;;5.33;3.77;;;10.40;28.40;;;;;;5012068;28;20175;-53
2023/04/05 07:12:55;;;;;;;6.03;4.93;;;10.50;28.70;;;;;;5012218;28;20420;-52
2023/04/05 07:15:20;;;;;;;8.73;4.10;;;10.60;28.70;;;;;;5012108;28;20288;-51
2023/04/05 07:17:46;;;;;;;6.17;4.57;;;10.80;28.80;;;;;;5011992;28;20449;-53
2023/04/05 07:20:13;;;;;;;5.10;3.47;;;10.90;28.60;;;;;;5012018;28;20182;-52
2023/04/05 07:22:38;;;;;;;9.82;5.45;;;11.10;28.70;;;;;;5011960;28;20170;-53
2023/04/05 07:25:07;;;;;;;7.50;4.53;;;11.20;28.20;;;;;;5011814;28;20562;-51
2023/04/05 07:27:33;;;;;;;5.95;3.90;;;11.30;28.40;;;;;;5011989;28;20271;-53
2023/04/05 07:29:59;;;;;;;5.53;3.78;;;11.40;27.70;;;;;;5012000;28;20181;-53
2023/04/05 07:32:25;;;;;;;6.17;3.43;;;11.40;27.30;;;;;;5012029;28;20178;-52
2023/04/05 07:34:51;;;;;;;7.27;5.20;;;11.50;27.90;;;;;;5012025;28;20436;-52
2023/04/05 07:37:17;;;;;;;4.47;3.70;;;11.60;27.80;;;;;;5011947;28;20659;-53
2023/04/05 07:39:42;;;;;;;4.73;3.43;;;11.70;27.70;;;;;;5011939;28;20414;-52
2023/04/05 07:42:08;;;;;;;4.27;3.53;;;11.90;27.80;;;;;;5011917;28;20177;-52
2023/04/05 07:44:34;;;;;;;3.50;3.20;;;11.90;26.40;;;;;;5011828;28;20661;-52
2023/04/05 07:46:59;;;;;;;5.80;3.37;;;12.00;26.40;;;;;;5011905;28;20189;-52
2023/04/05 07:49:26;;;;;;;5.30;3.43;;;12.10;26.80;;;;;;5012033;28;20646;-52
2023/04/05 07:51:56;;;;;;;5.13;3.38;;;12.10;25.00;;;;;;5011673;28;20183;-52
2023/04/05 07:54:22;;;;;;;3.63;3.33;;;12.10;25.80;;;;;;5013711;28;20654;-52
2023/04/05 07:56:48;;;;;;;7.07;4.03;;;12.20;26.70;;;;;;5015249;28;20226;-52
2023/04/05 07:59:14;;;;;;;4.65;2.97;;;12.40;26.40;;;;;;5015607;28;20286;-52
2023/04/05 08:01:40;;;;;;;4.20;3.00;;;12.60;26.80;;;;;;5015323;28;20266;-52
2023/04/05 08:04:06;;;;;;;5.93;3.83;;;12.80;26.50;;;;;;5015401;28;20397;-52
2023/04/05 08:06:31;;;;;;;7.60;3.13;;;13.00;26.00;;;;;;5015131;28;20194;-52
2023/04/05 08:08:57;;;;;;;9.30;4.27;;;13.20;26.20;;;;;;5015123;28;20214;-53
2023/04/05 08:11:23;;;;;;;6.93;4.10;;;13.50;26.70;;;;;;5015127;28;20221;-52
2023/04/05 08:13:49;;;;;;;4.33;3.90;;;13.70;26.20;;;;;;5014937;28;20181;-52
2023/04/05 08:16:15;;;;;;;10.67;3.77;;;13.80;24.50;;;;;;5014957;28;20199;-52
2023/04/05 08:18:40;;;;;;;7.97;5.40;;;13.90;24.70;;;;;;5015110;28;20536;-53
2023/04/05 08:21:06;;;;;;;12.30;4.50;;;14.00;24.10;;;;;;5015296;28;20174;-52
2023/04/05 08:23:32;;;;;;;5.97;4.70;;;14.20;24.60;;;;;;5014754;28;20170;-53
2023/04/05 08:25:57;;;;;;;5.60;4.60;;;14.40;24.40;;;;;;5015121;28;20205;-53
2023/04/05 08:28:23;;;;;;;5.37;3.90;;;14.50;22.80;;;;;;5014874;28;20662;-53
2023/04/05 08:30:54;;;;;;;5.70;3.73;;;14.40;23.20;;;;;;5014781;28;20178;-52
2023/04/05 08:33:20;;;;;;;4.72;3.60;;;14.40;23.90;;;;;;5014824;28;20186;-52
2023/04/05 08:35:45;;;;;;;8.47;5.30;;;14.20;20.60;;;;;;5014579;28;20570;-52
2023/04/05 08:38:11;;;;;;;4.90;3.60;;;13.90;22.80;;;;;;5014550;28;20205;-52
2023/04/05 08:40:55;;;;;;;5.60;3.70;;;13.70;23.40;;;;;;5014586;28;20174;-53
2023/04/05 08:43:39;;;;;;;4.85;3.53;;;13.60;24.10;;;;;;5014534;28;20181;-53
2023/04/05 08:46:08;;;;;;;5.18;3.70;;;13.50;23.70;;;;;;5014739;28;20237;-53
2023/04/05 08:48:37;;;;;;;4.00;3.20;;;13.30;23.40;;;;;;5014445;28;20177;-53
2023/04/05 08:51:03;;;;;;;5.78;3.75;;;13.20;24.20;;;;;;5014423;28;20221;-53
2023/04/05 08:53:29;;;;;;;8.73;3.80;;;13.20;24.60;;;;;;5014354;28;20179;-53
2023/04/05 08:55:58;;;;;;;6.22;4.20;;;13.10;24.00;;;;;;5014179;28;20457;-53
2023/04/05 08:58:25;;;;;;;6.57;3.60;;;13.10;23.10;;;;;;5014258;28;20202;-52
2023/04/05 09:00:51;;;;;;;6.20;3.88;;;13.00;23.90;;;;;;5014408;28;20178;-53
2023/04/05 09:03:24;;;;;;;6.68;4.00;;;12.90;24.20;;;;;;5014066;28;20643;-52
2023/04/05 09:05:51;;;;;;;8.77;3.20;;;12.90;23.80;;;;;;5013383;28;20187;-52
2023/04/05 09:08:20;;;;;;;5.25;4.20;;;12.80;23.40;;;;;;5014149;28;20559;-51
2023/04/05 09:10:48;;;;;;;5.72;4.20;;;12.80;24.40;;;;;;5013975;28;20194;-52
2023/04/05 09:13:14;;;;;;;5.00;3.65;;;12.70;24.80;;;;;;5013758;28;20185;-52
2023/04/05 09:15:40;;;;;;;4.75;4.30;;;12.70;24.80;;;;;;5013861;28;20745;-52
2023/04/05 09:18:06;;;;;;;8.80;4.40;;;12.70;24.20;;;;;;5013849;28;20249;-52
2023/04/05 09:20:32;;;;;;;4.87;3.10;;;12.70;24.60;;;;;;5013930;28;20194;-52
2023/04/05 09:22:57;;;;;;;4.80;4.27;;;12.60;24.90;;;;;;5013692;28;20437;-51
2023/04/05 09:25:38;;;;;;;5.27;3.70;;;12.70;25.20;;;;;;5013864;28;20475;-53
2023/04/05 09:28:05;;;;;;;5.78;4.05;;;13.00;26.10;;;;;;5013574;28;20658;-50
2023/04/05 09:30:32;;;;;;;5.07;3.75;;;13.30;26.30;;;;;;5013955;28;20183;-51
2023/04/05 09:32:58;;;;;;;3.80;2.92;;;13.80;25.90;;;;;;5013725;28;20233;-53
2023/04/05 09:35:29;;;;;;;5.40;3.28;;;14.10;22.80;;;;;;5013485;28;20234;-50
2023/04/05 09:38:04;;;;;;;6.30;3.53;;;14.50;23.10;;;;;;5013466;28;20593;-55
2023/04/05 09:40:42;;;;;;;4.45;3.05;;;14.80;23.90;;;;;;5013442;28;20193;-53
2023/04/05 09:43:08;;;;;;;3.60;2.97;;;15.10;22.70;;;;;;5013133;28;20200;-53
2023/04/05 09:45:41;;;;;;;7.20;3.58;;;15.00;21.80;;;;;;5013394;28;20217;-54
2023/04/05 09:48:08;;;;;;;5.93;3.25;;;14.90;21.80;;;;;;5013620;28;20294;-51
2023/04/05 09:50:35;;;;;;;7.95;3.75;;;14.80;21.80;;;;;;5013318;28;20187;-51
2023/04/05 09:53:09;;;;;;;8.07;4.10;;;14.60;21.00;;;;;;5013053;28;20179;-53
2023/04/05 09:55:35;;;;;;;4.78;3.38;;;14.40;21.00;;;;;;5013188;28;20270;-51
2023/04/05 09:58:01;;;;;;;5.00;3.43;;;14.20;21.70;;;;;;5013077;28;20198;-53
2023/04/05 10:00:29;;;;;;;5.43;3.63;;;14.20;21.60;;;;;;5013331;28;20417;-53
2023/04/05 10:02:55;;;;;;;5.00;3.75;;;14.00;20.60;;;;;;5012883;28;20417;-51
2023/04/05 10:05:26;;;;;;;5.20;4.68;;;13.80;19.10;;;;;;5013013;28;20292;-53
2023/04/05 10:07:53;;;;;;;6.57;3.25;;;13.50;20.00;;;;;;5013317;28;20508;-51
2023/04/05 10:10:21;;;;;;;3.55;3.13;;;13.50;20.70;;;;;;5013081;28;20179;-53
2023/04/05 10:12:49;;;;;;;4.25;2.90;;;13.60;21.40;;;;;;5012721;28;20646;-54
2023/04/05 10:15:16;;;;;;;5.00;3.85;;;13.70;20.00;;;;;;5013119;28;20207;-51
2023/04/05 10:17:55;;;;;;;4.90;3.40;;;13.90;20.10;;;;;;5012812;28;20293;-52
2023/04/05 10:20:26;;;;;;;5.07;3.20;;;14.20;20.30;;;;;;5012860;28;20186;-53
2023/04/05 10:23:03;;;;;;;3.45;3.03;;;14.40;19.60;;;;;;5012611;28;20732;-53
2023/04/05 10:25:47;;;;;;;6.22;3.05;;;14.60;20.30;;;;;;5012781;28;20688;-54
2023/04/05 10:28:34;;;;;;;4.18;3.78;;;14.70;19.90;;;;;;5012641;28;20310;-52
2023/04/05 10:31:21;;;;;;;5.40;3.55;;;14.80;20.00;;;;;;5012851;28;20178;-53
2023/04/05 10:34:13;;;;;;;9.48;4.43;;;14.90;19.90;;;;;;5012573;28;20178;-51
2023/04/05 10:36:48;;;;;;;8.25;4.40;;;14.90;19.10;;;;;;5011776;28;20199;-53
2023/04/05 10:39:35;;;;;;;6.40;4.00;;;15.00;19.50;;;;;;5012656;28;20224;-52
2023/04/05 10:42:10;;;;;;;5.90;2.95;;;15.10;19.40;;;;;;5012271;28;20161;-53
2023/04/05 10:44:38;;;;;;;7.15;3.58;;;15.10;19.20;;;;;;5012707;28;20217;-50
2023/04/05 10:47:05;;;;;;;4.43;3.05;;;15.10;19.10;;;;;;5012380;28;20254;-53
2023/04/05 10:49:48;;;;;;;8.15;3.20;;;15.00;19.60;;;;;;5012432;28;20662;-51
2023/04/05 10:52:16;;;;;;;4.78;3.15;;;15.00;19.90;;;;;;5012153;28;20177;-53
2023/04/05 10:54:43;;;;;;;4.25;3.35;;;15.00;20.30;;;;;;5012153;28;20202;-51
2023/04/05 10:57:10;;;;;;;5.10;3.40;;;14.90;19.40;;;;;;5012318;28;20158;-51
2023/04/05 10:59:41;;;;;;;9.60;4.38;;;14.60;18.70;;;;;;5012252;28;20213;-53
2023/04/05 11:02:08;;;;;;;5.35;3.38;;;14.40;18.80;;;;;;5012315;28;20182;-53
2023/04/05 11:04:34;;;;;;;7.18;3.50;;;14.00;19.20;;;;;;5012132;28;20179;-50
2023/04/05 11:07:16;;;;;;;3.33;3.00;;;13.80;19.30;;;;;;5012552;28;20174;-53
2023/04/05 11:10:04;;;;;;;3.80;3.25;;;13.60;19.10;;;;;;5012528;28;20182;-53
2023/04/05 11:12:45;;;;;;;3.80;3.40;;;13.40;20.00;;;;;;5011989;28;20213;-53
2023/04/05 11:15:31;;;;;;;14.18;10.07;;;13.50;20.20;;;;;;5012082;28;20198;-51
2023/04/05 11:18:21;;;;;;;5.72;4.63;;;13.50;19.60;;;;;;5012362;28;20682;-53
2023/04/05 11:21:05;;;;;;;10.23;3.80;;;13.30;19.40;;;;;;5002231;28;20213;-56
2023/04/05 11:23:31;;;;;;;4.75;3.20;;;13.20;19.00;;;;;;5011922;28;20646;-52
2023/04/05 11:26:04;;;;;;;3.50;2.70;;;13.20;19.40;;;;;;5012207;28;20191;-55
2023/04/05 11:28:36;;;;;;;4.22;3.10;;;13.10;19.50;;;;;;5012820;28;20178;-55
2023/04/05 11:31:21;;;;;;;9.95;3.55;;;13.20;20.10;;;;;;5016090;28;20159;-51
2023/04/05 11:33:47;;;;;;;4.10;3.70;;;13.30;20.50;;;;;;5015859;28;20178;-53
2023/04/05 11:36:14;;;;;;;4.83;3.40;;;13.40;21.20;;;;;;5016026;28;20205;-55
2023/04/05 11:38:43;;;;;;;4.18;3.35;;;13.50;21.00;;;;;;5016026;28;20225;-53
2023/04/05 11:41:16;;;;;;;4.47;3.78;;;13.60;20.90;;;;;;5015976;28;20209;-53
2023/04/05 11:43:51;;;;;;;5.82;3.42;;;13.60;20.60;;;;;;5015633;28;20156;-55
2023/04/05 11:46:18;;;;;;;4.65;3.05;;;13.70;20.70;;;;;;5015773;28;20225;-55
2023/04/05 11:48:49;;;;;;;9.07;3.33;;;13.70;21.20;;;;;;5015767;28;20182;-53
2023/04/05 11:51:15;;;;;;;3.70;2.65;;;13.80;21.20;;;;;;5015863;28;20579;-52
2023/04/05 11:53:46;;;;;;;4.80;3.05;;;13.90;21.30;;;;;;5015242;28;20177;-55
2023/04/05 11:56:14;;;;;;;3.00;2.42;;;14.00;21.10;;;;;;5015341;28;20244;-52
2023/04/05 11:58:41;;;;;;;5.35;3.30;;;14.00;19.90;;;;;;5015565;28;20285;-54
2023/04/05 12:01:08;;;;;;;4.35;2.65;;;14.10;19.60;;;;;;5015670;28;20179;-55
2023/04/05 12:03:37;;;;;;;5.50;2.83;;;14.10;17.50;;;;;;5015228;28;20178;-53
2023/04/05 12:06:04;;;;;;;11.27;3.28;;;14.00;19.60;;;;;;5015236;28;20217;-54
2023/04/05 12:08:49;;;;;;;5.47;3.22;;;14.20;20.00;;;;;;5015192;28;20727;-55
2023/04/05 12:11:22;;;;;;;5.03;3.10;;;14.50;19.50;;;;;;5015366;28;20182;-54
2023/04/05 12:13:47;;;;;;;8.15;3.75;;;14.50;20.40;;;;;;5015112;28;20151;-52
2023/04/05 12:16:13;;;;;;;4.07;2.67;;;14.40;19.60;;;;;;5015340;28;20217;-55
2023/04/05 12:18:39;;;;;;;6.80;3.87;;;14.40;17.90;;;;;;5014979;28;20689;-52
2023/04/05 12:21:08;;;;;;;6.55;3.55;;;14.40;18.60;;;;;;5013726;28;20500;-51
2023/04/05 12:23:35;;;;;;;7.18;3.30;;;14.40;19.40;;;;;;5014831;28;20218;-55
2023/04/05 12:26:03;;;;;;;3.38;2.38;;;14.30;20.00;;;;;;5015050;28;20199;-51
2023/04/05 12:28:51;;;;;;;6.75;3.67;;;14.30;19.60;;;;;;5015028;28;20226;-54
2023/04/05 12:31:17;;;;;;;3.30;2.90;;;14.40;20.40;;;;;;5014784;28;20178;-51
2023/04/05 12:33:43;;;;;;;5.97;3.00;;;14.40;20.00;;;;;;5014792;28;20193;-53
2023/04/05 12:36:10;;;;;;;4.15;3.20;;;14.60;19.50;;;;;;5014828;28;20421;-52
2023/04/05 12:38:37;;;;;;;3.50;2.83;;;14.50;18.50;;;;;;5014542;28;20678;-53
2023/04/05 12:41:03;;;;;;;5.35;2.85;;;14.40;19.30;;;;;;5013457;28;20546;-53
2023/04/05 12:43:42;;;;;;;4.18;3.05;;;14.40;19.30;;;;;;5014489;28;20170;-52
2023/04/05 12:46:40;;;;;;;4.80;2.78;;;14.40;19.50;;;;;;5014715;28;20650;-52
2023/04/05 12:49:09;;;;;;;7.15;3.97;;;14.40;19.50;;;;;;5009108;28;20186;-53
2023/04/05 12:51:34;;;;;;;4.65;3.05;;;14.30;19.50;;;;;;5014561;28;20178;-53
2023/04/05 12:54:03;;;;;;;4.40;2.77;;;14.40;20.00;;;;;;5014510;28;20205;-51
2023/04/05 12:56:29;;;;;;;6.13;3.28;;;14.60;20.40;;;;;;5014078;28;20242;-53
2023/04/05 12:58:55;;;;;;;4.40;3.00;;;14.90;20.10;;;;;;5014179;28;20210;-53
2023/04/05 13:01:21;;;;;;;3.70;2.73;;;15.20;21.00;;;;;;5014279;28;20178;-53